Terminal Aerodrome Forecast
Issued by NWS

Home | Current Version | Previous Version | Text Only | Print | Product List | Glossary On
Versions: 1 2 3 4 5 6 7 8 9 10 11 12 13 14 15 16 17 18 19 20 21 22
000
FTUS43 KDLH 201137
TAFHYR
TAF
KHYR 201137Z 2012/2112 08009KT P6SM BKN100
     FM201500 08012G17KT P6SM OVC090
     FM201700 08014G21KT P6SM -SHRA SCT025 OVC050
     FM202100 06014G21KT 4SM -RA BR SCT007 OVC016
     FM210000 09009KT 4SM -RA BR SCT004 OVC007
     FM210600 11006KT 2SM -DZ BR OVC005=

USA.gov is the U.S. government's official web portal to all federal, state and local government web resources and services.